createdAt,value
2022-09-10T00:01:00.353Z,2.97
2022-09-10T00:03:27.321Z,3.00
2022-09-10T00:06:27.748Z,3.15
2022-09-10T00:08:58.941Z,3.08
2022-09-10T00:11:31.040Z,2.72
2022-09-10T00:14:08.052Z,2.83
2022-09-10T00:16:34.735Z,2.80
2022-09-10T00:19:01.986Z,3.20
2022-09-10T00:21:29.955Z,2.70
2022-09-10T00:23:57.533Z,2.88
2022-09-10T00:26:27.191Z,2.80
2022-09-10T00:28:55.972Z,3.10
2022-09-10T00:31:23.668Z,2.97
2022-09-10T00:33:52.474Z,2.58
2022-09-10T00:36:25.671Z,2.80
2022-09-10T00:38:54.754Z,3.10
2022-09-10T00:41:23.327Z,3.17
2022-09-10T00:43:51.399Z,2.50
2022-09-10T00:46:25.297Z,2.60
2022-09-10T00:48:55.958Z,2.50
2022-09-10T00:51:24.054Z,2.67
2022-09-10T00:53:50.879Z,3.00
2022-09-10T00:56:18.249Z,2.80
2022-09-10T00:58:48.518Z,2.75
2022-09-10T01:01:19.113Z,2.75
2022-09-10T01:03:46.377Z,2.70
2022-09-10T01:06:13.765Z,2.78
2022-09-10T01:08:40.547Z,2.90
2022-09-10T01:11:34.566Z,2.97
2022-09-10T01:14:20.282Z,2.47
2022-09-10T01:17:05.468Z,2.22
2022-09-10T01:20:06.477Z,2.92
2022-09-10T01:23:04.743Z,2.78
2022-09-10T01:25:51.553Z,2.30
2022-09-10T01:28:45.394Z,2.28
2022-09-10T01:31:23.841Z,2.03
2022-09-10T01:33:59.402Z,2.70
2022-09-10T01:36:31.846Z,2.30
2022-09-10T01:38:58.541Z,2.58
2022-09-10T01:41:27.853Z,2.65
2022-09-10T01:43:54.828Z,2.20
2022-09-10T01:46:40.757Z,2.10
2022-09-10T01:49:23.928Z,2.42
2022-09-10T01:52:10.436Z,1.83
2022-09-10T01:54:59.219Z,2.20
2022-09-10T01:58:13.046Z,2.10
2022-09-10T02:01:05.002Z,2.30
2022-09-10T02:03:36.005Z,2.47
2022-09-10T02:06:05.220Z,2.08
2022-09-10T02:08:39.073Z,2.10
2022-09-10T02:11:11.745Z,2.40
2022-09-10T02:13:44.793Z,2.13
2022-09-10T02:16:38.832Z,2.30
2022-09-10T02:19:06.349Z,2.20
2022-09-10T02:21:33.604Z,1.92
2022-09-10T02:24:09.978Z,2.13
2022-09-10T02:26:40.936Z,2.70
2022-09-10T02:29:10.986Z,2.10
2022-09-10T02:31:39.005Z,2.10
2022-09-10T02:34:06.461Z,2.08
2022-09-10T02:36:33.216Z,2.20
2022-09-10T02:39:00.384Z,2.17
2022-09-10T02:41:28.637Z,2.38
2022-09-10T02:43:55.612Z,2.47
2022-09-10T02:46:22.373Z,2.20
2022-09-10T02:48:49.025Z,2.22
2022-09-10T02:51:15.947Z,2.13
2022-09-10T02:53:42.909Z,2.03
2022-09-10T02:56:09.625Z,2.33
2022-09-10T02:58:36.859Z,2.10
2022-09-10T03:01:14.676Z,2.75
2022-09-10T03:03:42.938Z,2.30
2022-09-10T03:06:09.890Z,2.20
2022-09-10T03:08:36.817Z,2.28
2022-09-10T03:11:04.381Z,2.20
2022-09-10T03:13:33.434Z,2.47
2022-09-10T03:16:03.879Z,2.10
2022-09-10T03:18:31.757Z,2.20
2022-09-10T03:21:18.279Z,2.60
2022-09-10T03:23:47.039Z,2.55
2022-09-10T03:26:16.659Z,2.83
2022-09-10T03:28:44.941Z,2.45
2022-09-10T03:31:14.741Z,2.90
2022-09-10T03:33:46.146Z,2.72
2022-09-10T03:36:13.534Z,2.45
2022-09-10T03:38:42.653Z,3.05
2022-09-10T03:41:13.570Z,2.88
2022-09-10T03:43:40.453Z,3.05
2022-09-10T03:46:11.872Z,3.78
2022-09-10T03:48:40.083Z,3.20
2022-09-10T03:51:10.723Z,3.08
2022-09-10T03:53:38.534Z,3.38
2022-09-10T03:56:06.106Z,3.00
2022-09-10T03:58:34.955Z,2.75
2022-09-10T04:01:02.346Z,2.88
2022-09-10T04:03:31.250Z,2.50
2022-09-10T04:05:58.439Z,2.72
2022-09-10T04:08:25.024Z,2.90
2022-09-10T04:10:52.807Z,2.88
2022-09-10T04:13:19.386Z,2.63
2022-09-10T04:15:48.710Z,3.20
2022-09-10T04:18:15.750Z,2.78
2022-09-10T04:20:47.908Z,3.28
2022-09-10T04:23:16.121Z,3.40
2022-09-10T04:25:44.379Z,3.15
2022-09-10T04:28:11.542Z,2.70
2022-09-10T04:30:38.613Z,2.80
2022-09-10T04:33:05.233Z,2.97
2022-09-10T04:35:32.805Z,2.80
2022-09-10T04:38:01.356Z,3.15
2022-09-10T04:40:28.004Z,3.22
2022-09-10T04:42:54.611Z,3.78
2022-09-10T04:45:21.602Z,4.47
2022-09-10T04:47:49.408Z,4.60
2022-09-10T04:50:16.057Z,3.63
2022-09-10T04:53:02.631Z,4.15
2022-09-10T04:55:31.852Z,4.00
2022-09-10T04:57:59.374Z,4.18
2022-09-10T05:00:27.017Z,4.88
2022-09-10T05:02:54.111Z,4.50
2022-09-10T05:05:20.831Z,4.43
2022-09-10T05:07:48.602Z,5.30
2022-09-10T05:10:15.329Z,5.63
2022-09-10T05:12:42.071Z,6.22
2022-09-10T05:15:09.925Z,5.55
2022-09-10T05:17:36.613Z,5.32
2022-09-10T05:20:06.290Z,6.22
2022-09-10T05:22:40.345Z,5.47
2022-09-10T05:25:08.157Z,6.95
2022-09-10T05:27:35.126Z,6.30
2022-09-10T05:30:10.117Z,7.15
2022-09-10T05:32:36.974Z,7.07
2022-09-10T05:35:05.346Z,7.50
2022-09-10T05:37:36.259Z,7.07
2022-09-10T05:40:06.586Z,7.18
2022-09-10T05:42:33.537Z,6.63
2022-09-10T05:45:00.105Z,6.43
2022-09-10T05:47:28.173Z,5.82
2022-09-10T05:49:56.282Z,6.10
2022-09-10T05:52:24.309Z,5.82
2022-09-10T05:54:51.778Z,5.57
2022-09-10T05:57:18.385Z,6.57
2022-09-10T05:59:46.121Z,6.47
2022-09-10T06:02:23.980Z,6.10
2022-09-10T06:04:52.300Z,5.20
2022-09-10T06:07:19.580Z,5.50
2022-09-10T06:09:46.151Z,5.22
2022-09-10T06:12:31.456Z,5.20
2022-09-10T06:14:58.794Z,5.30
2022-09-10T06:17:25.406Z,5.32
2022-09-10T06:19:52.583Z,4.80
2022-09-10T06:22:19.430Z,4.07
2022-09-10T06:24:50.478Z,4.65
2022-09-10T06:27:17.966Z,4.60
2022-09-10T06:29:44.477Z,3.65
2022-09-10T06:32:12.288Z,4.60
2022-09-10T06:34:38.997Z,5.30
2022-09-10T06:37:06.813Z,4.20
2022-09-10T06:39:36.475Z,4.40
2022-09-10T06:42:03.250Z,4.25
2022-09-10T06:44:52.001Z,3.55
2022-09-10T06:48:19.122Z,4.47
2022-09-10T06:50:26.448Z,4.88
2022-09-10T06:52:56.987Z,3.78
2022-09-10T06:55:23.689Z,4.57
2022-09-10T06:57:50.994Z,4.00
2022-09-10T07:00:17.746Z,4.45
2022-09-10T07:02:50.377Z,4.75
2022-09-10T07:05:18.181Z,4.28
2022-09-10T07:07:46.266Z,4.60
2022-09-10T07:10:14.002Z,4.70
2022-09-10T07:12:41.592Z,4.07
2022-09-10T07:15:09.313Z,4.40
2022-09-10T07:17:36.595Z,5.05
2022-09-10T07:20:03.899Z,5.63
2022-09-10T07:22:42.890Z,5.70
2022-09-10T07:25:11.276Z,4.78
2022-09-10T07:27:59.184Z,5.07
2022-09-10T07:30:28.178Z,4.72
2022-09-10T07:32:57.177Z,4.45
2022-09-10T07:35:31.068Z,3.80
2022-09-10T07:37:59.026Z,4.05
2022-09-10T07:40:28.155Z,4.80
2022-09-10T07:42:56.160Z,4.40
2022-09-10T07:45:28.094Z,4.50
2022-09-10T07:47:54.792Z,4.47
2022-09-10T07:50:21.661Z,4.10
2022-09-10T07:52:52.697Z,4.20
2022-09-10T07:55:21.203Z,4.30
2022-09-10T07:57:48.593Z,3.72
2022-09-10T08:00:16.829Z,4.35
2022-09-10T08:02:48.160Z,3.70
2022-09-10T08:05:18.624Z,4.25
2022-09-10T08:07:46.572Z,4.20
2022-09-10T08:10:13.338Z,4.25
2022-09-10T08:12:40.763Z,3.50
2022-09-10T08:15:08.542Z,3.38
2022-09-10T08:17:36.756Z,4.13
2022-09-10T08:20:07.745Z,3.15
2022-09-10T08:22:36.341Z,3.33
2022-09-10T08:25:07.182Z,4.05
2022-09-10T08:27:36.000Z,3.65
2022-09-10T08:30:05.608Z,3.40
2022-09-10T08:32:34.708Z,3.20
2022-09-10T08:35:04.860Z,3.25
2022-09-10T08:37:33.321Z,4.10
2022-09-10T08:40:00.343Z,3.88
2022-09-10T08:42:39.942Z,4.22
2022-09-10T08:45:32.805Z,3.65
2022-09-10T08:48:19.185Z,4.07
2022-09-10T08:50:53.961Z,2.88
2022-09-10T08:53:40.854Z,2.80
2022-09-10T08:56:19.013Z,2.72
2022-09-10T08:59:04.450Z,2.50
2022-09-10T09:01:44.291Z,2.22
2022-09-10T09:04:35.429Z,2.60
2022-09-10T09:07:12.741Z,2.75
2022-09-10T09:09:39.680Z,2.70
2022-09-10T09:12:21.901Z,2.10
2022-09-10T09:15:09.123Z,2.30
2022-09-10T09:18:10.986Z,2.25
2022-09-10T09:20:48.752Z,1.80
2022-09-10T09:23:51.807Z,1.65
2022-09-10T09:26:37.297Z,2.17
2022-09-10T09:29:32.024Z,1.98
2022-09-10T09:32:05.503Z,2.15
2022-09-10T09:34:39.554Z,1.92
2022-09-10T09:37:19.400Z,1.95
2022-09-10T09:40:04.753Z,1.30
2022-09-10T09:42:45.514Z,1.30
2022-09-10T09:45:37.407Z,1.52
2022-09-10T09:48:07.280Z,1.10
2022-09-10T09:50:38.712Z,1.30
2022-09-10T09:53:05.259Z,1.40
2022-09-10T09:55:43.063Z,1.20
2022-09-10T09:58:22.150Z,1.90
2022-09-10T10:00:50.154Z,1.42
2022-09-10T10:03:27.865Z,1.58
2022-09-10T10:06:08.620Z,1.65
2022-09-10T10:09:01.372Z,1.60
2022-09-10T10:11:41.945Z,1.90
2022-09-10T10:14:20.033Z,1.73
2022-09-10T10:16:52.280Z,1.77
2022-09-10T10:19:33.942Z,1.90
2022-09-10T10:22:18.954Z,1.80
2022-09-10T10:24:51.485Z,1.85
2022-09-10T10:27:25.363Z,1.95
2022-09-10T10:30:22.792Z,1.48
2022-09-10T10:33:04.493Z,1.52
2022-09-10T10:35:35.581Z,1.80
2022-09-10T10:38:20.165Z,1.75
2022-09-10T10:41:11.468Z,1.45
2022-09-10T10:44:10.474Z,1.40
2022-09-10T10:47:00.306Z,1.08
2022-09-10T10:50:22.505Z,1.25
2022-09-10T10:53:15.491Z,0.90
2022-09-10T10:55:50.317Z,1.10
2022-09-10T10:58:37.529Z,1.38
2022-09-10T11:01:15.256Z,1.90
2022-09-10T11:03:49.476Z,1.63
2022-09-10T11:06:20.780Z,1.40
2022-09-10T11:09:06.813Z,1.60
2022-09-10T11:11:45.078Z,1.40
2022-09-10T11:14:36.417Z,1.70
2022-09-10T11:17:12.208Z,1.58
2022-09-10T11:20:26.708Z,1.52
2022-09-10T11:22:57.094Z,1.60
2022-09-10T11:25:38.971Z,1.38
2022-09-10T11:28:23.753Z,1.20
2022-09-10T11:30:56.695Z,1.25
2022-09-10T11:33:29.025Z,1.60
2022-09-10T11:36:06.034Z,1.80
2022-09-10T11:38:42.488Z,1.73
2022-09-10T11:41:24.052Z,1.40
2022-09-10T11:44:36.441Z,1.10
2022-09-10T11:47:13.009Z,1.30
2022-09-10T11:49:52.993Z,1.30
2022-09-10T11:52:22.952Z,1.20
2022-09-10T11:54:49.483Z,1.20
2022-09-10T11:57:41.037Z,1.25
2022-09-10T12:00:16.458Z,1.40
2022-09-10T12:03:20.260Z,1.20
2022-09-10T12:06:16.695Z,1.60
2022-09-10T12:09:15.477Z,1.33
2022-09-10T12:12:08.982Z,1.30
2022-09-10T12:14:38.791Z,1.45
2022-09-10T12:17:21.563Z,1.30
2022-09-10T12:19:53.271Z,1.17
2022-09-10T12:22:36.866Z,1.50
2022-09-10T12:25:06.953Z,1.30
2022-09-10T12:27:51.629Z,1.10
2022-09-10T12:30:36.192Z,1.10
2022-09-10T12:33:24.645Z,1.08
2022-09-10T12:35:52.585Z,1.10
2022-09-10T12:38:53.615Z,1.10
2022-09-10T12:41:23.214Z,1.20
2022-09-10T12:43:49.662Z,1.25
2022-09-10T12:46:22.566Z,1.13
2022-09-10T12:49:13.407Z,1.20
2022-09-10T12:51:59.170Z,1.23
2022-09-10T12:54:43.040Z,1.00
2022-09-10T12:57:28.200Z,1.17
2022-09-10T13:00:19.176Z,1.00
2022-09-10T13:03:07.536Z,1.00
2022-09-10T13:05:54.132Z,1.02
2022-09-10T13:08:28.752Z,1.40
2022-09-10T13:10:56.339Z,1.38
2022-09-10T13:13:37.564Z,1.15
2022-09-10T13:16:09.075Z,1.13
2022-09-10T13:18:37.181Z,1.20
2022-09-10T13:21:22.441Z,1.10
2022-09-10T13:23:53.396Z,1.00
2022-09-10T13:26:29.729Z,1.30
2022-09-10T13:28:56.915Z,1.40
2022-09-10T13:31:42.116Z,1.42
2022-09-10T13:34:14.701Z,1.40
2022-09-10T13:37:12.229Z,1.53
2022-09-10T13:40:00.134Z,1.40
2022-09-10T13:42:42.444Z,1.50
2022-09-10T13:45:21.717Z,1.05
2022-09-10T13:47:57.319Z,1.10
2022-09-10T13:50:27.798Z,1.27
2022-09-10T13:52:58.823Z,1.10
2022-09-10T13:55:27.777Z,1.48
2022-09-10T13:57:59.102Z,1.33
2022-09-10T14:00:33.433Z,1.13
2022-09-10T14:03:00.696Z,1.98
2022-09-10T14:05:40.481Z,1.17
2022-09-10T14:08:19.313Z,1.20
2022-09-10T14:11:14.000Z,1.20
2022-09-10T14:14:05.584Z,1.45
2022-09-10T14:16:38.796Z,1.38
2022-09-10T14:19:12.158Z,1.50
2022-09-10T14:21:38.965Z,2.00
2022-09-10T14:24:05.772Z,2.10
2022-09-10T14:26:35.614Z,2.50
2022-09-10T14:29:22.521Z,2.20
2022-09-10T14:31:49.132Z,2.47
2022-09-10T14:34:36.241Z,2.50
2022-09-10T14:37:32.084Z,2.35
2022-09-10T14:40:19.588Z,2.40
2022-09-10T14:42:48.410Z,2.58
2022-09-10T14:45:51.626Z,2.20
2022-09-10T14:48:28.914Z,2.58
2022-09-10T14:51:12.687Z,2.42
2022-09-10T14:56:23.101Z,2.45
2022-09-10T14:59:11.641Z,2.38
2022-09-10T15:01:40.971Z,2.33
2022-09-10T15:04:12.855Z,2.15
2022-09-10T15:06:40.553Z,2.38
2022-09-10T15:09:09.196Z,2.30
2022-09-10T15:11:38.309Z,1.98
2022-09-10T15:14:05.608Z,2.00
2022-09-10T15:16:32.124Z,1.83
2022-09-10T15:18:58.717Z,2.00
2022-09-10T15:21:25.545Z,2.10
2022-09-10T15:23:52.108Z,2.05
2022-09-10T15:26:19.277Z,2.13
2022-09-10T15:28:46.689Z,1.98
2022-09-10T15:31:13.819Z,2.03
2022-09-10T15:33:40.620Z,2.10
2022-09-10T15:36:07.802Z,1.98
2022-09-10T15:38:34.556Z,1.52
2022-09-10T15:41:12.599Z,2.00
2022-09-10T15:43:46.057Z,1.88
2022-09-10T15:46:15.965Z,2.00
2022-09-10T15:48:45.006Z,2.20
2022-09-10T15:51:21.277Z,2.10
2022-09-10T15:53:49.743Z,1.67
2022-09-10T15:56:19.940Z,1.90
2022-09-10T15:58:57.639Z,2.00
2022-09-10T16:01:27.881Z,1.92
2022-09-10T16:03:57.041Z,2.03
2022-09-10T16:06:27.257Z,2.08
2022-09-10T16:09:01.812Z,2.25
2022-09-10T16:11:31.051Z,2.08
2022-09-10T16:14:04.043Z,2.10
2022-09-10T16:16:32.195Z,2.17
2022-09-10T16:18:58.769Z,2.30
2022-09-10T16:21:28.935Z,2.28
2022-09-10T16:23:57.429Z,2.28
2022-09-10T16:26:29.370Z,1.98
2022-09-10T16:29:01.653Z,1.98
2022-09-10T16:31:34.173Z,2.03
2022-09-10T16:34:03.620Z,2.42
2022-09-10T16:36:32.970Z,2.00
2022-09-10T16:39:04.825Z,2.22
2022-09-10T16:41:32.953Z,2.08
2022-09-10T16:44:00.504Z,2.00
2022-09-10T16:46:28.138Z,2.13
2022-09-10T16:48:56.027Z,2.22
2022-09-10T16:51:25.046Z,1.77
2022-09-10T16:54:03.208Z,2.13
2022-09-10T16:56:34.525Z,2.00
2022-09-10T16:59:02.617Z,2.05
2022-09-10T17:01:31.070Z,2.10
2022-09-10T17:04:00.140Z,2.30
2022-09-10T17:06:29.208Z,2.13
2022-09-10T17:08:59.354Z,2.20
2022-09-10T17:11:29.066Z,2.00
2022-09-10T17:13:58.504Z,2.17
2022-09-10T17:16:30.446Z,2.22
2022-09-10T17:19:11.654Z,2.20
2022-09-10T17:21:39.920Z,2.15
2022-09-10T17:24:08.581Z,2.50
2022-09-10T17:26:37.124Z,2.05
2022-09-10T17:29:15.930Z,2.10
2022-09-10T17:31:44.053Z,2.00
2022-09-10T17:34:15.555Z,2.05
2022-09-10T17:36:44.597Z,2.00
2022-09-10T17:39:12.655Z,2.00
2022-09-10T17:41:39.708Z,1.92
2022-09-10T17:44:07.899Z,1.80
2022-09-10T17:46:36.186Z,2.00
2022-09-10T17:49:05.890Z,1.90
2022-09-10T17:51:34.589Z,2.08
2022-09-10T17:54:04.199Z,2.47
2022-09-10T17:56:31.847Z,2.22
2022-09-10T17:59:01.538Z,2.10
2022-09-10T18:01:33.940Z,2.15
2022-09-10T18:04:00.946Z,2.33
2022-09-10T18:06:29.051Z,2.40
2022-09-10T18:09:00.595Z,2.10
2022-09-10T18:11:30.350Z,1.90
2022-09-10T18:13:58.597Z,2.20
2022-09-10T18:16:28.134Z,2.20
2022-09-10T18:18:59.238Z,2.10
2022-09-10T18:21:27.112Z,2.15
2022-09-10T18:23:56.741Z,2.22
2022-09-10T18:26:26.392Z,2.65
2022-09-10T18:29:10.774Z,2.20
2022-09-10T18:31:41.218Z,2.30
2022-09-10T18:34:11.085Z,2.45
2022-09-10T18:36:37.901Z,2.00
2022-09-10T18:39:06.922Z,2.40
2022-09-10T18:41:38.211Z,2.17
2022-09-10T18:44:08.160Z,2.30
2022-09-10T18:46:36.147Z,2.20
2022-09-10T18:49:05.151Z,2.30
2022-09-10T18:51:31.725Z,2.25
2022-09-10T18:54:00.948Z,2.50
2022-09-10T18:56:32.292Z,2.30
2022-09-10T18:59:07.092Z,2.30
2022-09-10T19:01:36.298Z,2.40
2022-09-10T19:04:06.977Z,2.58
2022-09-10T19:06:40.900Z,2.42
2022-09-10T19:09:19.554Z,2.45
2022-09-10T19:11:49.521Z,2.60
2022-09-10T19:14:27.768Z,2.70
2022-09-10T19:16:54.881Z,2.58
2022-09-10T19:19:24.038Z,2.75
2022-09-10T19:21:55.862Z,2.50
2022-09-10T19:24:51.179Z,3.00
2022-09-10T19:27:16.197Z,3.00
2022-09-10T19:29:43.014Z,3.25
2022-09-10T19:32:11.378Z,3.40
2022-09-10T19:34:38.901Z,4.00
2022-09-10T19:37:07.015Z,3.53
2022-09-10T19:39:34.035Z,3.45
2022-09-10T19:42:00.924Z,3.40
2022-09-10T19:44:27.981Z,3.55
2022-09-10T19:46:55.213Z,3.80
2022-09-10T19:49:22.183Z,3.47
2022-09-10T19:51:48.698Z,3.70
2022-09-10T19:54:16.054Z,3.88
2022-09-10T19:56:42.856Z,3.42
2022-09-10T19:59:10.290Z,3.90
2022-09-10T20:01:44.843Z,4.25
2022-09-10T20:04:12.821Z,4.57
2022-09-10T20:06:40.026Z,4.63
2022-09-10T20:09:08.592Z,4.10
2022-09-10T20:11:37.048Z,4.43
2022-09-10T20:14:07.842Z,4.70
2022-09-10T20:16:39.862Z,4.43
2022-09-10T20:19:06.740Z,4.30
2022-09-10T20:21:34.320Z,4.50
2022-09-10T20:24:00.867Z,4.70
2022-09-10T20:26:30.346Z,4.72
2022-09-10T20:28:59.651Z,5.45
2022-09-10T20:31:28.609Z,4.82
2022-09-10T20:33:57.838Z,5.45
2022-09-10T20:36:26.953Z,5.03
2022-09-10T20:38:54.624Z,5.22
2022-09-10T20:41:23.261Z,5.22
2022-09-10T20:43:51.712Z,5.22
2022-09-10T20:46:22.007Z,5.47
2022-09-10T20:48:49.922Z,4.93
2022-09-10T20:51:18.001Z,5.60
2022-09-10T20:53:45.541Z,5.20
2022-09-10T20:56:14.912Z,6.22
2022-09-10T20:58:42.042Z,6.78
2022-09-10T21:01:11.585Z,6.70
2022-09-10T21:03:39.816Z,6.03
2022-09-10T21:06:08.316Z,5.75
2022-09-10T21:08:39.383Z,5.72
2022-09-10T21:11:08.692Z,6.13
2022-09-10T21:13:37.361Z,6.80
2022-09-10T21:16:13.081Z,6.55
2022-09-10T21:18:42.406Z,5.97
2022-09-10T21:21:12.100Z,6.65
2022-09-10T21:23:43.847Z,6.43
2022-09-10T21:26:14.537Z,6.38
2022-09-10T21:28:44.700Z,6.32
2022-09-10T21:31:13.700Z,6.35
2022-09-10T21:33:42.576Z,6.82
2022-09-10T21:36:18.469Z,6.60
2022-09-10T21:38:48.774Z,6.78
2022-09-10T21:41:19.214Z,7.53
2022-09-10T21:43:47.350Z,7.38
2022-09-10T21:46:15.019Z,7.30
2022-09-10T21:48:42.489Z,6.95
2022-09-10T21:51:14.959Z,6.38
2022-09-10T21:53:43.070Z,8.02
2022-09-10T21:56:12.624Z,7.28
2022-09-10T21:58:40.227Z,6.82
2022-09-10T22:01:19.502Z,7.28
2022-09-10T22:03:49.946Z,8.20
2022-09-10T22:06:24.696Z,7.72
2022-09-10T22:09:00.142Z,7.65
2022-09-10T22:11:34.055Z,7.18
2022-09-10T22:14:04.077Z,7.90
2022-09-10T22:16:32.605Z,8.23
2022-09-10T22:19:02.177Z,7.60
2022-09-10T22:21:29.196Z,7.72
2022-09-10T22:23:55.975Z,7.78
2022-09-10T22:26:25.116Z,7.28
2022-09-10T22:28:54.173Z,7.38
2022-09-10T22:31:24.207Z,7.68
2022-09-10T22:34:00.560Z,8.05
2022-09-10T22:36:31.383Z,7.55
2022-09-10T22:39:13.513Z,7.25
2022-09-10T22:41:41.058Z,7.45
2022-09-10T22:44:08.048Z,7.18
2022-09-10T22:46:35.665Z,7.10
2022-09-10T22:49:02.854Z,7.85
2022-09-10T22:51:32.067Z,8.00
2022-09-10T22:53:59.200Z,7.47
2022-09-10T22:56:26.828Z,8.20
2022-09-10T22:58:55.706Z,7.75
2022-09-10T23:01:28.627Z,7.50
2022-09-10T23:04:00.330Z,7.65
2022-09-10T23:06:30.585Z,8.32
2022-09-10T23:09:02.448Z,8.43
2022-09-10T23:11:31.172Z,7.50
2022-09-10T23:14:01.433Z,8.95
2022-09-10T23:16:34.465Z,9.15
2022-09-10T23:19:12.804Z,8.40
2022-09-10T23:21:42.951Z,9.40
2022-09-10T23:24:13.162Z,9.18
2022-09-10T23:26:40.850Z,8.40
2022-09-10T23:29:08.177Z,8.98
2022-09-10T23:31:37.482Z,8.88
2022-09-10T23:34:06.997Z,9.18
2022-09-10T23:36:37.319Z,8.75
2022-09-10T23:39:11.340Z,8.32
2022-09-10T23:41:39.110Z,9.23
2022-09-10T23:44:06.338Z,8.82
2022-09-10T23:46:37.100Z,9.00
2022-09-10T23:49:05.240Z,9.05
2022-09-10T23:51:33.959Z,8.93
2022-09-10T23:54:00.643Z,9.25
2022-09-10T23:56:29.191Z,9.30
2022-09-10T23:58:59.189Z,9.57
